createdAt,value
2022-11-05T04:52:47.398Z,8.66
2022-11-05T04:53:48.588Z,8.63
2022-11-05T04:54:48.595Z,8.55
2022-11-05T04:55:48.552Z,8.66
2022-11-05T04:56:48.621Z,8.58
2022-11-05T04:57:48.589Z,8.45
2022-11-05T04:58:49.401Z,8.51
2022-11-05T04:59:48.585Z,8.42
2022-11-05T05:00:48.472Z,8.44
2022-11-05T05:01:48.556Z,8.45
2022-11-05T05:02:48.449Z,8.36
2022-11-05T05:03:48.496Z,8.33
2022-11-05T05:04:48.546Z,8.37
2022-11-05T05:05:48.457Z,8.26
2022-11-05T05:06:48.432Z,8.28
2022-11-05T05:07:48.457Z,8.28
2022-11-05T05:08:48.455Z,8.12
2022-11-05T05:09:48.419Z,8.20
2022-11-05T05:10:48.451Z,8.18
2022-11-05T05:11:48.486Z,8.12
2022-11-05T05:12:48.451Z,8.15
2022-11-05T05:13:48.489Z,8.18
2022-11-05T05:14:48.467Z,8.15
2022-11-05T05:15:48.463Z,8.07
2022-11-05T05:16:48.447Z,8.20
2022-11-05T05:17:48.402Z,8.04
2022-11-05T05:18:48.423Z,8.00
2022-11-05T05:19:48.513Z,8.08
2022-11-05T05:20:48.397Z,8.11
2022-11-05T05:21:48.455Z,8.20
2022-11-05T05:22:48.424Z,7.99
2022-11-05T05:23:48.285Z,8.08
2022-11-05T05:24:52.559Z,8.00
2022-11-05T05:25:49.312Z,8.00
2022-11-05T05:26:48.367Z,7.97
2022-11-05T05:27:48.286Z,7.92
2022-11-05T05:28:48.340Z,7.96
2022-11-05T05:29:48.405Z,7.84
2022-11-05T05:30:48.325Z,7.89
2022-11-05T05:31:48.321Z,7.75
2022-11-05T05:32:48.301Z,7.81
2022-11-05T05:33:48.292Z,7.78
2022-11-05T05:34:48.306Z,7.87
2022-11-05T05:35:48.376Z,7.75
2022-11-05T05:36:49.313Z,7.71
2022-11-05T05:37:48.285Z,7.72
2022-11-05T05:38:48.284Z,7.67
2022-11-05T05:39:48.288Z,7.58
2022-11-05T05:40:48.271Z,7.67
2022-11-05T05:41:48.184Z,7.56
2022-11-05T05:42:48.137Z,7.53
2022-11-05T05:43:48.170Z,7.55
2022-11-05T05:44:48.152Z,7.59
2022-11-05T05:45:48.292Z,7.55
2022-11-05T05:46:48.342Z,7.58
2022-11-05T05:47:48.235Z,7.58
2022-11-05T05:48:48.246Z,7.50
2022-11-05T05:49:48.274Z,7.56
2022-11-05T05:50:48.279Z,7.49
2022-11-05T05:51:48.239Z,7.55
2022-11-05T05:52:48.196Z,7.41
2022-11-05T05:53:48.212Z,7.49
2022-11-05T05:54:48.176Z,7.47
2022-11-05T05:55:48.191Z,7.49
2022-11-05T05:56:48.179Z,7.35
2022-11-05T05:57:48.261Z,7.32
2022-11-05T05:58:48.198Z,7.32
2022-11-05T05:59:48.137Z,7.17
2022-11-05T06:00:48.044Z,7.20
2022-11-05T06:01:48.218Z,7.24
2022-11-05T06:02:48.310Z,7.22
2022-11-05T06:03:48.048Z,7.19
2022-11-05T06:04:48.059Z,7.23
2022-11-05T06:05:48.018Z,7.19
2022-11-05T06:06:47.987Z,7.08
2022-11-05T06:07:48.176Z,7.17
2022-11-05T06:08:48.123Z,7.12
2022-11-05T06:09:48.114Z,7.17
2022-11-05T06:10:48.088Z,7.01
2022-11-05T06:11:48.040Z,6.94
2022-11-05T06:12:48.035Z,6.84
2022-11-05T06:13:48.195Z,6.79
2022-11-05T06:14:48.063Z,6.65
2022-11-05T06:15:48.042Z,6.71
2022-11-05T06:16:48.015Z,6.73
2022-11-05T06:17:48.020Z,6.77
2022-11-05T06:18:48.019Z,6.77
2022-11-05T06:19:48.039Z,6.80
2022-11-05T06:20:47.986Z,6.69
2022-11-05T06:21:47.969Z,6.77
2022-11-05T06:22:48.006Z,6.71
2022-11-05T06:23:47.898Z,6.56
2022-11-05T06:24:47.912Z,6.66
2022-11-05T06:25:47.934Z,6.63
2022-11-05T06:26:47.893Z,6.71
2022-11-05T06:27:47.886Z,6.71
2022-11-05T06:28:47.921Z,6.65
2022-11-05T06:29:47.853Z,6.68
2022-11-05T06:30:48.043Z,6.59
2022-11-05T06:31:47.929Z,6.58
2022-11-05T06:32:47.989Z,6.69
2022-11-05T06:33:47.910Z,6.63
2022-11-05T06:34:47.889Z,6.61
2022-11-05T06:35:47.944Z,6.69
2022-11-05T06:36:47.893Z,6.68
2022-11-05T06:37:47.890Z,6.59
2022-11-05T06:38:47.900Z,6.69
2022-11-05T06:39:47.839Z,6.59
2022-11-05T06:40:47.862Z,6.54
2022-11-05T06:42:16.696Z,6.47
2022-11-05T06:42:49.777Z,6.44
2022-11-05T06:43:47.849Z,6.35
2022-11-05T06:44:47.905Z,6.43
2022-11-05T06:45:47.823Z,6.29
2022-11-05T06:46:48.775Z,6.28
2022-11-05T06:47:48.810Z,6.21
2022-11-05T06:48:47.877Z,6.19
2022-11-05T06:49:47.679Z,6.18
2022-11-05T06:50:47.739Z,6.25
2022-11-05T06:51:47.735Z,5.88
2022-11-05T06:52:47.809Z,5.86
2022-11-05T06:53:47.709Z,5.95
2022-11-05T06:54:47.649Z,5.92
2022-11-05T06:55:47.645Z,5.88
2022-11-05T06:56:47.793Z,5.86
2022-11-05T06:57:48.157Z,5.89
2022-11-05T06:58:47.728Z,5.95
2022-11-05T06:59:47.693Z,5.91
2022-11-05T07:00:47.686Z,5.83
2022-11-05T07:01:47.828Z,5.82
2022-11-05T07:02:47.706Z,5.74
2022-11-05T07:03:47.725Z,5.74
2022-11-05T07:04:47.677Z,5.70
2022-11-05T07:05:47.657Z,5.68
2022-11-05T07:06:47.646Z,5.64
2022-11-05T07:07:47.659Z,5.59
2022-11-05T07:08:47.727Z,5.59
2022-11-05T07:09:47.651Z,5.63
2022-11-05T07:10:47.659Z,5.63
2022-11-05T07:11:47.542Z,5.52
2022-11-05T07:12:47.525Z,5.63
2022-11-05T07:13:47.576Z,5.73
2022-11-05T07:14:47.704Z,5.74
2022-11-05T07:15:47.558Z,5.75
2022-11-05T07:16:47.520Z,5.78
2022-11-05T07:17:47.512Z,5.78
2022-11-05T07:18:47.654Z,5.92
2022-11-05T07:19:47.645Z,6.00
2022-11-05T07:20:47.548Z,5.98
2022-11-05T07:21:47.585Z,5.98
2022-11-05T07:22:47.536Z,6.13
2022-11-05T07:23:48.544Z,6.26
2022-11-05T07:24:47.554Z,6.21
2022-11-05T07:25:47.582Z,6.33
2022-11-05T07:26:47.565Z,6.35
2022-11-05T07:27:47.546Z,6.36
2022-11-05T07:28:47.512Z,6.48
2022-11-05T07:29:47.531Z,6.48
2022-11-05T07:30:47.583Z,6.61
2022-11-05T07:31:47.507Z,6.62
2022-11-05T07:32:47.506Z,6.69
2022-11-05T07:33:47.503Z,6.69
2022-11-05T07:34:47.391Z,6.69
2022-11-05T07:35:47.357Z,6.72
2022-11-05T07:36:47.511Z,6.80
2022-11-05T07:37:47.368Z,6.68
2022-11-05T07:38:47.346Z,6.69
2022-11-05T07:39:48.387Z,6.61
2022-11-05T07:40:47.373Z,6.73
2022-11-05T07:41:47.597Z,6.63
2022-11-05T07:42:47.459Z,6.65
2022-11-05T07:43:47.387Z,6.71
2022-11-05T07:44:47.400Z,6.69
2022-11-05T07:45:47.387Z,6.69
2022-11-05T07:46:47.374Z,6.77
2022-11-05T07:47:47.410Z,6.72
2022-11-05T07:48:47.344Z,6.84
2022-11-05T07:49:47.389Z,6.84
2022-11-05T07:50:47.381Z,6.81
2022-11-05T07:51:47.348Z,6.79
2022-11-05T07:52:47.393Z,6.76
2022-11-05T07:53:47.345Z,7.01
2022-11-05T07:54:47.207Z,7.07
2022-11-05T07:55:47.250Z,7.02
2022-11-05T07:56:47.237Z,7.12
2022-11-05T07:57:47.231Z,7.23
2022-11-05T07:58:47.618Z,7.35
2022-11-05T07:59:47.216Z,7.41
2022-11-05T08:00:47.310Z,7.56
2022-11-05T08:01:47.373Z,7.47
2022-11-05T08:02:47.481Z,7.50
2022-11-05T08:03:47.304Z,7.67
2022-11-05T08:04:47.467Z,7.62
2022-11-05T08:05:47.252Z,7.49
2022-11-05T08:06:47.266Z,7.58
2022-11-05T08:07:47.230Z,7.53
2022-11-05T08:08:47.359Z,7.59
2022-11-05T08:09:47.233Z,7.58
2022-11-05T08:10:47.181Z,7.69
2022-11-05T08:11:47.188Z,7.62
2022-11-05T08:12:47.170Z,7.55
2022-11-05T08:13:47.178Z,7.50
2022-11-05T08:14:47.243Z,7.58
2022-11-05T08:15:47.192Z,7.49
2022-11-05T08:16:47.120Z,7.59
2022-11-05T08:17:47.068Z,7.69
2022-11-05T08:18:47.139Z,7.84
2022-11-05T08:19:47.120Z,8.00
2022-11-05T08:20:47.260Z,8.00
2022-11-05T08:21:47.155Z,8.03
2022-11-05T08:22:47.134Z,8.03
2022-11-05T08:23:47.173Z,7.94
2022-11-05T08:24:47.222Z,8.11
2022-11-05T08:25:47.223Z,8.15
2022-11-05T08:26:47.155Z,8.12
2022-11-05T08:27:47.097Z,8.20
2022-11-05T08:28:47.086Z,8.29
2022-11-05T08:29:47.074Z,8.33
2022-11-05T08:30:47.122Z,8.35
2022-11-05T08:31:47.117Z,8.33
2022-11-05T08:32:47.142Z,8.36
2022-11-05T08:33:47.012Z,8.53
2022-11-05T08:34:47.018Z,8.63
2022-11-05T08:35:47.085Z,8.68
2022-11-05T08:36:47.055Z,8.76
2022-11-05T08:37:47.015Z,8.83
2022-11-05T08:38:47.039Z,8.78
2022-11-05T08:39:47.067Z,8.88
2022-11-05T08:40:47.009Z,9.01
2022-11-05T08:41:48.526Z,9.02
2022-11-05T08:42:47.049Z,9.01
2022-11-05T08:43:46.993Z,9.04
2022-11-05T08:44:47.967Z,9.10
2022-11-05T08:45:46.967Z,9.04
2022-11-05T08:46:47.009Z,9.02
2022-11-05T08:47:47.017Z,9.18
2022-11-05T08:48:47.040Z,9.12
2022-11-05T08:49:47.059Z,9.12
2022-11-05T08:50:47.011Z,9.06
2022-11-05T08:51:46.949Z,9.09
2022-11-05T08:52:46.976Z,9.10
2022-11-05T08:53:46.906Z,9.27
2022-11-05T08:54:46.918Z,9.31
2022-11-05T08:55:47.186Z,9.31
2022-11-05T08:56:47.823Z,9.40
2022-11-05T08:57:46.928Z,9.45
2022-11-05T08:58:46.825Z,9.34
2022-11-05T08:59:46.779Z,9.40
2022-11-05T09:00:46.893Z,9.56
2022-11-05T09:01:46.912Z,9.50
2022-11-05T09:02:46.870Z,9.52
2022-11-05T09:03:46.955Z,9.56
2022-11-05T09:04:46.874Z,9.50
2022-11-05T09:05:46.859Z,9.61
2022-11-05T09:06:46.867Z,9.58
2022-11-05T09:07:46.967Z,9.57
2022-11-05T09:08:46.823Z,9.64
2022-11-05T09:09:46.920Z,9.70
2022-11-05T09:10:46.852Z,9.66
2022-11-05T09:12:10.709Z,9.61
2022-11-05T09:12:48.712Z,9.61
2022-11-05T09:13:46.879Z,9.63
2022-11-05T09:14:46.794Z,9.66
2022-11-05T09:15:46.680Z,9.76
2022-11-05T09:16:46.710Z,9.67
2022-11-05T09:17:46.691Z,9.64
2022-11-05T09:18:46.664Z,9.64
2022-11-05T09:19:46.819Z,9.66
2022-11-05T09:20:47.858Z,9.71
2022-11-05T09:21:46.735Z,9.78
2022-11-05T09:22:46.846Z,9.73
2022-11-05T09:23:46.626Z,9.89
2022-11-05T09:24:46.711Z,9.91
2022-11-05T09:25:46.734Z,9.94
2022-11-05T09:26:46.689Z,9.96
2022-11-05T09:27:46.673Z,9.96
2022-11-05T09:28:46.675Z,10.12
2022-11-05T09:29:46.715Z,10.10
2022-11-05T09:30:46.625Z,10.06
2022-11-05T09:31:46.656Z,10.21
2022-11-05T09:32:46.755Z,10.14
2022-11-05T09:33:46.527Z,10.18
2022-11-05T09:34:46.611Z,10.24
2022-11-05T09:35:46.527Z,10.26
2022-11-05T09:36:46.582Z,10.28
2022-11-05T09:37:46.626Z,10.19
2022-11-05T09:38:46.661Z,10.21
2022-11-05T09:39:46.583Z,10.25
2022-11-05T09:40:46.618Z,10.24
2022-11-05T09:41:46.653Z,10.44
2022-11-05T09:42:46.555Z,10.37
2022-11-05T09:43:46.573Z,10.33
2022-11-05T09:44:47.278Z,10.40
2022-11-05T09:45:46.585Z,10.42
2022-11-05T09:46:46.549Z,10.37
2022-11-05T09:47:46.540Z,10.44
2022-11-05T09:48:46.440Z,10.56
2022-11-05T09:49:46.531Z,10.62
2022-11-05T09:50:46.443Z,10.56
2022-11-05T09:51:46.531Z,10.63
2022-11-05T09:52:46.467Z,10.68
2022-11-05T09:53:46.450Z,10.81
2022-11-05T09:54:46.406Z,10.76
2022-11-05T09:55:46.579Z,10.83
2022-11-05T09:56:46.482Z,10.88
2022-11-05T09:57:46.641Z,10.99
2022-11-05T09:58:46.463Z,11.02
2022-11-05T09:59:46.459Z,10.99
2022-11-05T10:00:46.433Z,11.02
2022-11-05T10:03:18.043Z,10.96
2022-11-05T10:04:50.227Z,11.11
2022-11-05T10:05:18.198Z,11.11
2022-11-05T10:06:51.360Z,11.25
2022-11-05T10:07:18.058Z,11.32
2022-11-05T10:08:52.497Z,11.43
2022-11-05T10:10:10.764Z,11.46
2022-11-05T10:10:18.074Z,11.67
2022-11-05T10:12:16.388Z,11.70
2022-11-05T10:12:18.081Z,11.65
2022-11-05T10:13:18.119Z,11.77
2022-11-05T10:14:18.130Z,11.74
2022-11-05T10:15:18.030Z,11.75
2022-11-05T10:16:18.018Z,11.85
2022-11-05T10:17:18.050Z,11.85
2022-11-05T10:18:18.077Z,11.71
2022-11-05T10:19:18.000Z,11.72
2022-11-05T10:20:17.960Z,11.85
2022-11-05T10:21:27.758Z,11.68
2022-11-05T10:22:19.014Z,11.77
2022-11-05T10:23:17.981Z,11.72
2022-11-05T10:24:18.120Z,11.77
2022-11-05T10:25:18.056Z,11.77
2022-11-05T10:26:18.014Z,11.74
2022-11-05T10:27:18.096Z,11.97
2022-11-05T10:28:18.025Z,11.93
2022-11-05T10:29:18.036Z,11.94
2022-11-05T10:30:18.021Z,11.82
2022-11-05T10:31:18.018Z,11.82
2022-11-05T10:32:18.018Z,11.89
2022-11-05T10:33:17.960Z,11.75
2022-11-05T10:34:17.953Z,11.68
2022-11-05T10:35:17.975Z,11.68
2022-11-05T10:36:17.979Z,11.68
2022-11-05T10:37:18.137Z,11.70
2022-11-05T10:38:17.884Z,11.59
2022-11-05T10:39:17.862Z,11.61
2022-11-05T10:40:17.848Z,11.52
2022-11-05T10:41:17.859Z,11.50
2022-11-05T10:42:17.766Z,11.57
2022-11-05T10:43:17.884Z,11.57
2022-11-05T10:44:19.062Z,11.46
2022-11-05T10:45:18.821Z,11.27
2022-11-05T10:46:17.906Z,11.28
2022-11-05T10:47:17.877Z,11.25
2022-11-05T10:48:17.923Z,11.29
2022-11-05T10:49:17.894Z,11.19
2022-11-05T10:50:17.976Z,11.19
2022-11-05T10:51:17.864Z,11.28
2022-11-05T10:52:17.826Z,11.28
2022-11-05T10:53:17.813Z,11.28
2022-11-05T10:54:17.831Z,11.24
2022-11-05T10:55:17.836Z,11.35
2022-11-05T10:56:17.846Z,11.28
2022-11-05T10:57:17.866Z,11.27
2022-11-05T10:58:17.677Z,11.31
2022-11-05T10:59:17.707Z,11.17
2022-11-05T11:00:17.679Z,11.19
2022-11-05T11:01:17.883Z,11.10
2022-11-05T11:02:17.853Z,11.17
2022-11-05T11:03:17.714Z,10.96
2022-11-05T11:04:17.735Z,11.06
2022-11-05T11:05:17.846Z,11.11
2022-11-05T11:06:17.805Z,11.13
2022-11-05T11:07:17.759Z,11.25
2022-11-05T11:08:17.725Z,11.31
2022-11-05T11:09:17.755Z,11.44
2022-11-05T11:10:17.787Z,11.54
2022-11-05T11:11:17.726Z,11.70
2022-11-05T11:12:17.731Z,11.67
2022-11-05T11:13:18.035Z,11.72
2022-11-05T11:14:17.600Z,11.72
2022-11-05T11:15:17.549Z,11.68
2022-11-05T11:16:17.604Z,11.53
2022-11-05T11:17:17.592Z,11.52
2022-11-05T11:18:17.891Z,11.50
2022-11-05T11:19:17.694Z,11.41
2022-11-05T11:20:17.714Z,11.43
2022-11-05T11:21:17.645Z,11.36
2022-11-05T11:22:17.636Z,11.50
2022-11-05T11:23:17.576Z,11.41
2022-11-05T11:24:17.760Z,11.53
2022-11-05T11:25:17.627Z,11.47
2022-11-05T11:26:17.558Z,11.46
2022-11-05T11:27:17.610Z,11.47
2022-11-05T11:28:17.572Z,11.50
2022-11-05T11:29:18.302Z,11.46
2022-11-05T11:30:17.656Z,11.46
2022-11-05T11:31:18.399Z,11.43
2022-11-05T11:32:17.434Z,11.52
2022-11-05T11:33:17.453Z,11.52
2022-11-05T11:34:17.472Z,11.59
2022-11-05T11:35:17.498Z,11.85
2022-11-05T11:36:17.463Z,11.78
2022-11-05T11:37:19.633Z,11.87
2022-11-05T11:38:18.482Z,12.04
2022-11-05T11:39:17.481Z,12.11
2022-11-05T11:40:17.545Z,11.93
2022-11-05T11:41:18.528Z,11.96
2022-11-05T11:42:17.486Z,11.99
2022-11-05T11:43:17.442Z,12.08
2022-11-05T11:44:17.432Z,12.09
2022-11-05T11:45:17.594Z,11.99
2022-11-05T11:46:17.532Z,11.94
2022-11-05T11:47:17.526Z,11.93
2022-11-05T11:48:17.422Z,12.02
2022-11-05T11:49:17.444Z,11.90
2022-11-05T11:50:17.458Z,11.85
2022-11-05T11:51:17.402Z,11.83
2022-11-05T11:52:17.341Z,11.77
2022-11-05T11:53:17.987Z,11.78
2022-11-05T11:54:17.293Z,11.96
2022-11-05T11:55:17.519Z,12.01
2022-11-05T11:56:17.436Z,11.99
2022-11-05T11:57:17.430Z,12.01
2022-11-05T11:58:17.311Z,11.89
2022-11-05T11:59:17.378Z,11.94
2022-11-05T12:00:17.268Z,11.87
2022-11-05T12:01:17.470Z,11.77
2022-11-05T12:02:17.497Z,11.70
2022-11-05T12:03:17.862Z,11.72
2022-11-05T12:04:17.348Z,11.74
2022-11-05T12:05:17.375Z,11.80
2022-11-05T12:06:17.373Z,11.72
2022-11-05T12:07:17.753Z,11.74
2022-11-05T12:08:17.425Z,11.65
2022-11-05T12:09:17.352Z,11.77
2022-11-05T12:10:17.299Z,11.80
2022-11-05T12:11:17.358Z,11.72
2022-11-05T12:12:17.342Z,11.99
2022-11-05T12:13:17.320Z,12.06
2022-11-05T12:14:17.332Z,12.02
2022-11-05T12:15:17.274Z,12.16
2022-11-05T12:16:17.324Z,12.34
2022-11-05T12:17:17.242Z,12.39
2022-11-05T12:18:17.615Z,12.44
2022-11-05T12:19:17.417Z,12.33
2022-11-05T12:20:17.390Z,12.46
2022-11-05T12:21:34.649Z,12.45
2022-11-05T12:22:19.138Z,12.49
2022-11-05T12:23:17.086Z,12.34
2022-11-05T12:24:17.112Z,12.44
2022-11-05T12:25:17.143Z,12.52
2022-11-05T12:26:17.157Z,12.34
2022-11-05T12:27:17.085Z,12.39
2022-11-05T12:28:17.018Z,12.48
2022-11-05T12:29:19.322Z,12.39
2022-11-05T12:30:18.074Z,12.12
2022-11-05T12:31:17.089Z,11.93
2022-11-05T12:32:17.686Z,11.75
2022-11-05T12:33:17.529Z,11.74
2022-11-05T12:34:17.324Z,11.77
2022-11-05T12:35:17.218Z,11.74
2022-11-05T12:36:17.168Z,11.72
2022-11-05T12:37:17.155Z,11.83
2022-11-05T12:38:17.116Z,11.75
2022-11-05T12:39:17.135Z,11.68
2022-11-05T12:40:17.318Z,11.64
2022-11-05T12:41:17.173Z,11.74
2022-11-05T12:42:17.049Z,11.75
2022-11-05T12:43:17.539Z,11.70
2022-11-05T12:44:16.997Z,11.90
2022-11-05T12:45:17.014Z,11.97
2022-11-05T12:46:17.024Z,12.04
2022-11-05T12:47:17.049Z,12.11
2022-11-05T12:48:17.059Z,12.33
2022-11-05T12:49:16.999Z,12.42
2022-11-05T12:50:16.990Z,12.63
2022-11-05T12:51:16.987Z,12.88
2022-11-05T12:52:16.913Z,13.02
2022-11-05T12:53:16.850Z,13.15
2022-11-05T12:54:17.841Z,13.32
2022-11-05T12:55:16.873Z,13.58
2022-11-05T12:56:16.959Z,13.98
2022-11-05T12:57:16.850Z,14.44
2022-11-05T12:58:16.875Z,15.19
2022-11-05T12:59:16.825Z,15.93
2022-11-05T13:00:16.842Z,16.23
2022-11-05T13:01:16.890Z,16.58
2022-11-05T13:02:16.980Z,16.85
2022-11-05T13:03:17.742Z,17.78
2022-11-05T13:04:16.930Z,18.17
2022-11-05T13:05:16.865Z,18.40
2022-11-05T13:06:16.967Z,18.22
2022-11-05T13:07:16.923Z,18.46
2022-11-05T13:08:16.929Z,18.43
2022-11-05T13:09:16.836Z,17.30
2022-11-05T13:10:16.832Z,15.92
2022-11-05T13:11:16.930Z,15.09
2022-11-05T13:12:16.884Z,14.07
2022-11-05T13:13:16.868Z,13.22
2022-11-05T13:14:16.782Z,12.87
2022-11-05T13:15:17.685Z,12.59
2022-11-05T13:16:16.700Z,12.31
2022-11-05T13:17:16.707Z,12.24
2022-11-05T13:18:16.904Z,12.04
2022-11-05T13:19:16.797Z,12.11
2022-11-05T13:20:17.742Z,12.06
2022-11-05T13:21:17.686Z,11.99
2022-11-05T13:22:16.757Z,11.94
2022-11-05T13:23:16.819Z,11.94
2022-11-05T13:24:17.071Z,11.87
2022-11-05T13:25:16.793Z,11.96
2022-11-05T13:26:19.658Z,12.02
2022-11-05T13:27:17.727Z,12.05
2022-11-05T13:28:16.831Z,12.08
2022-11-05T13:29:16.924Z,12.12
2022-11-05T13:30:16.679Z,12.11
2022-11-05T13:31:16.709Z,12.26
2022-11-05T13:32:16.681Z,12.24
2022-11-05T13:33:16.673Z,12.16
2022-11-05T13:34:16.672Z,12.37
2022-11-05T13:35:16.728Z,12.39
2022-11-05T13:36:16.588Z,12.19
2022-11-05T13:37:16.610Z,12.33
2022-11-05T13:38:16.732Z,13.43
2022-11-05T13:39:16.630Z,13.12
2022-11-05T13:40:16.686Z,12.88
2022-11-05T13:41:16.591Z,12.63
2022-11-05T13:42:16.855Z,12.33
2022-11-05T13:43:16.544Z,12.27
2022-11-05T13:44:16.698Z,12.16
2022-11-05T13:45:16.807Z,12.16
2022-11-05T13:46:16.681Z,12.15
2022-11-05T13:47:16.646Z,12.39
2022-11-05T13:48:16.596Z,13.44
2022-11-05T13:49:16.603Z,14.10
2022-11-05T13:50:16.746Z,14.20
2022-11-05T13:51:16.630Z,14.35
2022-11-05T13:52:16.544Z,13.84
2022-11-05T13:53:16.537Z,13.99
2022-11-05T13:54:16.507Z,13.55
2022-11-05T13:55:16.557Z,13.25
2022-11-05T13:56:16.583Z,12.89
2022-11-05T13:57:16.501Z,12.60
2022-11-05T13:58:16.466Z,12.70
2022-11-05T13:59:16.435Z,13.12
2022-11-05T14:00:16.445Z,13.18
2022-11-05T14:01:16.447Z,13.44
2022-11-05T14:02:16.693Z,13.58
2022-11-05T14:03:16.557Z,13.73
2022-11-05T14:04:16.406Z,13.91
2022-11-05T14:05:16.408Z,13.92
2022-11-05T14:06:16.342Z,14.04
2022-11-05T14:07:16.595Z,13.99
2022-11-05T14:08:16.532Z,14.06
2022-11-05T14:09:16.519Z,14.14
2022-11-05T14:10:16.541Z,14.17
2022-11-05T14:11:16.582Z,14.19
2022-11-05T14:12:16.377Z,13.94
2022-11-05T14:13:16.490Z,14.12
2022-11-05T14:14:16.385Z,13.81
2022-11-05T14:15:16.366Z,13.58
2022-11-05T14:16:16.378Z,13.43
2022-11-05T14:17:16.367Z,13.41
2022-11-05T14:18:16.373Z,13.41
2022-11-05T14:19:16.374Z,13.46
2022-11-05T14:20:16.346Z,13.41
2022-11-05T14:21:16.305Z,13.37
2022-11-05T14:22:16.264Z,12.87
2022-11-05T14:23:16.368Z,12.87
2022-11-05T14:24:16.378Z,12.88
2022-11-05T14:25:16.241Z,12.88
2022-11-05T14:26:16.215Z,12.82
2022-11-05T14:27:16.265Z,13.07
2022-11-05T14:28:16.307Z,13.21
2022-11-05T14:29:16.594Z,13.30
2022-11-05T14:30:16.518Z,13.15
2022-11-05T14:31:16.297Z,13.11
2022-11-05T14:32:16.333Z,12.84
2022-11-05T14:33:16.228Z,12.52
2022-11-05T14:34:16.383Z,12.44
2022-11-05T14:35:16.316Z,12.44
2022-11-05T14:36:16.403Z,12.42
2022-11-05T14:37:16.280Z,12.31
2022-11-05T14:38:16.230Z,12.21
2022-11-05T14:39:16.348Z,12.37
2022-11-05T14:40:16.206Z,12.26
2022-11-05T14:41:16.309Z,12.29
2022-11-05T14:42:16.172Z,12.13
2022-11-05T14:43:16.246Z,12.08
2022-11-05T14:44:16.156Z,12.08
2022-11-05T14:45:16.111Z,12.12
2022-11-05T14:46:16.252Z,12.24
2022-11-05T14:47:16.188Z,12.26
2022-11-05T14:48:16.148Z,12.26
2022-11-05T14:49:16.200Z,12.37
2022-11-05T14:50:16.407Z,12.37
2022-11-05T14:51:16.240Z,12.41
2022-11-05T14:52:16.358Z,12.33
2022-11-05T14:53:16.229Z,12.44
2022-11-05T14:54:16.245Z,12.31
2022-11-05T14:55:16.542Z,12.24
2022-11-05T14:56:16.084Z,12.24
2022-11-05T14:57:16.262Z,12.13
2022-11-05T14:58:16.130Z,11.99
2022-11-05T14:59:16.250Z,11.90
2022-11-05T15:00:16.130Z,11.82
2022-11-05T15:01:16.157Z,11.83
2022-11-05T15:02:16.351Z,11.72
2022-11-05T15:03:16.125Z,11.78
2022-11-05T15:04:16.312Z,11.54
2022-11-05T15:05:16.098Z,11.61
2022-11-05T15:06:15.951Z,11.41
2022-11-05T15:07:15.901Z,11.38
2022-11-05T15:08:16.042Z,11.31
2022-11-05T15:09:15.920Z,11.36
2022-11-05T15:10:15.905Z,11.36
2022-11-05T15:11:16.165Z,11.38
2022-11-05T15:12:15.932Z,11.36
2022-11-05T15:13:16.289Z,11.38
2022-11-05T15:14:16.076Z,11.36
2022-11-05T15:15:21.266Z,11.32
2022-11-05T15:16:17.898Z,11.21
2022-11-05T15:17:15.997Z,11.28
2022-11-05T15:18:16.082Z,11.10
2022-11-05T15:19:16.270Z,11.17
2022-11-05T15:20:16.088Z,11.20
2022-11-05T15:21:15.953Z,11.11
2022-11-05T15:22:15.941Z,11.06
2022-11-05T15:23:16.139Z,10.99
2022-11-05T15:24:16.550Z,11.07
2022-11-05T15:25:15.908Z,10.92
2022-11-05T15:26:15.958Z,10.99
2022-11-05T15:27:16.022Z,10.99
2022-11-05T15:28:15.917Z,11.02
2022-11-05T15:29:15.900Z,10.95
2022-11-05T15:30:15.893Z,10.94
2022-11-05T15:31:15.841Z,10.83
2022-11-05T15:32:16.286Z,10.78
2022-11-05T15:33:16.018Z,10.66
2022-11-05T15:34:16.869Z,10.71
2022-11-05T15:35:15.934Z,10.53
2022-11-05T15:36:15.828Z,10.65
2022-11-05T15:37:15.994Z,10.60
2022-11-05T15:38:16.248Z,10.40
2022-11-05T15:39:29.115Z,10.30
2022-11-05T15:40:17.822Z,10.32
2022-11-05T15:41:15.678Z,10.34
2022-11-05T15:42:15.794Z,10.22
2022-11-05T15:43:15.776Z,10.19
2022-11-05T15:44:15.856Z,10.21
2022-11-05T15:45:15.763Z,10.25
2022-11-05T15:46:17.021Z,10.15
2022-11-05T15:47:15.762Z,10.15
2022-11-05T15:48:15.753Z,10.10
2022-11-05T15:49:15.802Z,10.19
2022-11-05T15:50:15.774Z,10.17
2022-11-05T15:51:15.758Z,10.09
2022-11-05T15:52:15.743Z,10.14
2022-11-05T15:53:41.628Z,10.17
2022-11-05T15:54:29.874Z,10.09
2022-11-05T15:55:17.631Z,9.99
2022-11-05T15:56:15.679Z,10.09
2022-11-05T15:57:15.681Z,10.01
2022-11-05T15:58:15.770Z,10.03
2022-11-05T15:59:16.278Z,10.10
2022-11-05T16:00:15.560Z,10.04
2022-11-05T16:01:15.728Z,9.97
2022-11-05T16:02:15.850Z,10.00
2022-11-05T16:03:15.513Z,9.94
2022-11-05T16:04:16.611Z,9.94
2022-11-05T16:05:15.782Z,9.91
2022-11-05T16:06:15.612Z,9.83
2022-11-05T16:07:15.615Z,9.82
2022-11-05T16:08:15.608Z,9.78
2022-11-05T16:09:15.580Z,9.75
2022-11-05T16:10:15.568Z,9.81
2022-11-05T16:11:15.522Z,9.82
2022-11-05T16:12:15.557Z,9.86
2022-11-05T16:13:15.628Z,9.83
2022-11-05T16:14:15.537Z,9.85
2022-11-05T16:15:15.541Z,9.78
2022-11-05T16:16:15.510Z,9.75
2022-11-05T16:17:15.491Z,9.76
2022-11-05T16:18:15.548Z,9.78
2022-11-05T16:19:15.994Z,9.78
2022-11-05T16:20:15.536Z,9.83
2022-11-05T16:21:15.514Z,9.81
2022-11-05T16:22:15.491Z,9.82
2022-11-05T16:23:16.579Z,9.79
2022-11-05T16:24:15.515Z,9.88
2022-11-05T16:25:15.580Z,9.99
2022-11-05T16:26:15.502Z,9.85
2022-11-05T16:27:19.480Z,9.88
2022-11-05T16:28:16.403Z,9.83
2022-11-05T16:29:15.406Z,9.81
2022-11-05T16:30:15.719Z,9.81
2022-11-05T16:31:15.361Z,9.81
2022-11-05T16:32:15.278Z,9.82
2022-11-05T16:33:15.283Z,9.85
2022-11-05T16:34:15.320Z,9.81
2022-11-05T16:35:15.622Z,9.82
2022-11-05T16:36:15.273Z,9.73
2022-11-05T16:37:15.445Z,9.75
2022-11-05T16:38:15.348Z,9.76
2022-11-05T16:39:16.361Z,9.75
2022-11-05T16:40:17.309Z,9.76
2022-11-05T16:41:15.285Z,9.70
2022-11-05T16:42:15.420Z,9.70
2022-11-05T16:43:15.336Z,9.71
2022-11-05T16:44:15.375Z,9.70
2022-11-05T16:45:15.402Z,9.82
2022-11-05T16:46:15.466Z,9.64
2022-11-05T16:47:15.297Z,9.57
2022-11-05T16:48:15.520Z,9.58
2022-11-05T16:49:15.442Z,9.50
2022-11-05T16:50:15.333Z,9.56
2022-11-05T16:51:15.265Z,9.46
2022-11-05T16:52:15.382Z,9.48
2022-11-05T16:53:15.287Z,9.58
2022-11-05T16:54:15.136Z,9.49
2022-11-05T16:55:15.178Z,9.46
2022-11-05T16:56:15.335Z,9.43
2022-11-05T16:57:15.117Z,9.34
2022-11-05T16:58:15.116Z,9.40
2022-11-05T16:59:15.360Z,9.39
2022-11-05T17:00:15.126Z,9.48
2022-11-05T17:01:15.156Z,9.32
2022-11-05T17:02:15.602Z,9.34
2022-11-05T17:03:15.149Z,9.38
2022-11-05T17:04:15.141Z,9.42
2022-11-05T17:05:15.172Z,9.43
2022-11-05T17:06:15.155Z,9.40
2022-11-05T17:07:15.291Z,9.40
2022-11-05T17:08:15.432Z,9.42
2022-11-05T17:09:15.247Z,9.48
2022-11-05T17:10:15.213Z,9.31
2022-11-05T17:11:15.187Z,9.39
2022-11-05T17:12:15.106Z,9.40
2022-11-05T17:13:15.133Z,9.27
2022-11-05T17:14:15.061Z,9.42
2022-11-05T17:15:14.980Z,9.40
2022-11-05T17:16:15.035Z,9.43
2022-11-05T17:17:15.096Z,9.34
2022-11-05T17:18:18.602Z,9.40
2022-11-05T17:19:15.975Z,9.35
2022-11-05T17:20:15.039Z,9.40
2022-11-05T17:21:15.217Z,9.39
2022-11-05T17:22:15.043Z,9.28
2022-11-05T17:23:16.463Z,9.10
2022-11-05T17:24:15.039Z,9.01
2022-11-05T17:25:15.011Z,9.02
2022-11-05T17:26:15.030Z,8.91
2022-11-05T17:27:15.011Z,9.04
2022-11-05T17:28:15.270Z,9.10
2022-11-05T17:29:15.236Z,9.02
2022-11-05T17:30:15.023Z,9.10
2022-11-05T17:31:14.917Z,9.01
2022-11-05T17:32:14.905Z,8.96
2022-11-05T17:33:15.334Z,8.99
2022-11-05T17:34:15.288Z,9.04
2022-11-05T17:35:14.924Z,8.94
2022-11-05T17:36:14.983Z,8.90
2022-11-05T17:37:14.889Z,8.97
2022-11-05T17:38:14.861Z,8.93
2022-11-05T17:39:14.821Z,8.93
2022-11-05T17:40:14.864Z,8.88
2022-11-05T17:41:14.957Z,8.83
2022-11-05T17:42:14.955Z,8.91
2022-11-05T17:43:15.236Z,8.86
2022-11-05T17:44:15.237Z,8.84
2022-11-05T17:45:15.047Z,8.75
2022-11-05T17:46:14.914Z,8.81
2022-11-05T17:47:15.307Z,8.75
2022-11-05T17:48:14.894Z,8.73
2022-11-05T17:49:14.925Z,8.76
2022-11-05T17:50:15.157Z,8.72
2022-11-05T17:51:15.002Z,8.57
2022-11-05T17:52:14.825Z,8.66
2022-11-05T17:53:15.071Z,8.68
2022-11-05T17:54:14.732Z,8.66
2022-11-05T17:55:15.342Z,8.66
2022-11-05T17:56:19.066Z,8.68
2022-11-05T17:57:15.878Z,8.75
2022-11-05T17:58:15.176Z,8.68
2022-11-05T17:59:14.835Z,8.75